Time;durP1;ratioP1;P1;durP2;ratioP2;P2;SDS_P1;SDS_P2;PMS_P1;PMS_P2;Temp;Humidity;BMP_temperature;BMP_pressure;BME280_temperature;BME280_humidity;BME280_pressure;Samples;Min_cycle;Max_cycle;Signal;HPM_P1;HPM_P2
2022/02/02 00:00:00;;;;;;;14.35;9.28;;;;;;;6.10;59.48;100902.94;1757227;80;21022;-73
2022/02/02 00:07:34;;;;;;;14.80;8.83;;;;;;;5.99;59.62;100887.91;1656187;85;21031;-74
2022/02/02 00:10:04;;;;;;;13.98;8.30;;;;;;;5.98;59.81;100899.08;1656479;86;21042;-74
2022/02/02 00:12:38;;;;;;;15.72;9.40;;;;;;;5.96;59.79;100896.06;1653597;86;21486;-74
2022/02/02 00:20:21;;;;;;;15.70;11.48;;;;;;;5.94;60.21;100886.16;1628946;87;21736;-74
2022/02/02 00:22:45;;;;;;;17.75;12.20;;;;;;;5.95;60.19;100887.91;1630081;87;21145;-74
2022/02/02 00:25:16;;;;;;;23.20;11.63;;;;;;;5.97;60.24;100888.76;1636017;87;21585;-74
2022/02/02 00:27:41;;;;;;;21.30;12.65;;;;;;;5.99;60.14;100882.73;1625409;87;21141;-74
2022/02/02 00:30:13;;;;;;;21.00;12.07;;;;;;;6.03;60.20;100881.00;1612829;87;21029;-74
2022/02/02 00:35:20;;;;;;;19.70;12.85;;;;;;;6.03;60.02;100863.79;1616897;87;21192;-73
2022/02/02 00:37:45;;;;;;;19.62;13.48;;;;;;;6.02;60.10;100858.63;1614850;87;21055;-74
2022/02/02 00:40:11;;;;;;;21.73;12.80;;;;;;;6.02;60.24;100854.30;1637181;87;21069;-74
2022/02/02 00:42:38;;;;;;;22.00;13.00;;;;;;;6.04;60.30;100852.58;1644664;86;21574;-75
2022/02/02 00:45:05;;;;;;;20.30;13.48;;;;;;;6.05;60.27;100851.73;1636657;86;21038;-75
2022/02/02 00:47:37;;;;;;;20.62;13.30;;;;;;;6.08;60.23;100851.70;1633261;86;21081;-74
2022/02/02 00:50:01;;;;;;;22.80;14.47;;;;;;;6.10;60.27;100849.98;1644075;86;21086;-74
2022/02/02 00:52:28;;;;;;;23.22;13.90;;;;;;;6.11;60.32;100838.80;1643431;87;21125;-74
2022/02/02 00:54:54;;;;;;;23.00;14.65;;;;;;;6.12;60.16;100834.04;1667924;84;21088;-74
2022/02/02 00:57:23;;;;;;;25.17;16.27;;;;;;;6.09;60.13;100837.94;1675367;84;21491;-75
2022/02/02 00:59:50;;;;;;;23.20;16.02;;;;;;;6.08;60.20;100831.04;1632193;86;21069;-75
2022/02/02 01:02:16;;;;;;;23.02;16.25;;;;;;;6.06;60.24;100826.31;1699489;83;21034;-74
2022/02/02 01:04:43;;;;;;;29.55;17.65;;;;;;;6.05;60.33;100822.45;1704266;82;21075;-75
2022/02/02 01:18:10;;;;;;;19.25;14.15;;;;;;;5.99;60.58;100809.13;1634369;87;21141;-76
2022/02/02 01:20:32;;;;;;;26.68;16.77;;;;;;;6.00;60.51;100805.66;1605955;87;21096;-74
2022/02/02 01:28:18;;;;;;;28.60;18.57;;;;;;;5.90;60.43;100805.26;1618188;87;21129;-75
2022/02/02 01:30:44;;;;;;;24.10;17.52;;;;;;;5.83;60.54;100802.24;1613643;88;21050;-75
2022/02/02 01:33:11;;;;;;;24.67;16.27;;;;;;;5.80;60.63;100793.20;1624909;88;21138;-74
2022/02/02 01:35:38;;;;;;;21.12;15.43;;;;;;;5.77;60.70;100788.89;1614295;88;21106;-75
2022/02/02 01:38:05;;;;;;;25.27;16.52;;;;;;;5.76;60.85;100785.90;1621755;88;21068;-74
2022/02/02 01:40:37;;;;;;;21.73;15.15;;;;;;;5.74;60.82;100785.47;1620880;88;21574;-73
2022/02/02 01:43:08;;;;;;;22.07;14.78;;;;;;;5.72;60.91;100785.90;1618523;88;21182;-74
2022/02/02 01:45:42;;;;;;;23.40;15.70;;;;;;;5.72;61.02;100788.05;1620670;86;21644;-75
2022/02/02 01:50:49;;;;;;;23.57;15.32;;;;;;;5.74;61.14;100790.63;1665021;84;21049;-74
2022/02/02 01:55:40;;;;;;;19.25;13.75;;;;;;;5.77;61.21;100781.57;1683700;85;21057;-74
2022/02/02 02:00:48;;;;;;;19.27;13.35;;;;;;;5.83;61.19;100772.55;1674583;84;21557;-74
2022/02/02 02:03:14;;;;;;;15.50;11.60;;;;;;;5.86;61.05;100775.14;1685537;84;21706;-73
2022/02/02 02:05:41;;;;;;;16.27;11.60;;;;;;;5.88;60.96;100770.83;1727445;80;21007;-72
2022/02/02 02:08:08;;;;;;;18.30;11.70;;;;;;;5.89;60.86;100761.37;1755099;81;21038;-73
2022/02/02 02:10:34;;;;;;;17.55;11.93;;;;;;;5.87;60.89;100760.09;1767588;80;20970;-74
2022/02/02 02:13:10;;;;;;;14.28;11.28;;;;;;;5.90;60.70;100761.36;1754652;80;21070;-74
2022/02/02 02:15:33;;;;;;;16.73;11.45;;;;;;;5.90;60.76;100762.64;1769214;80;21073;-74
2022/02/02 02:18:00;;;;;;;17.35;11.53;;;;;;;5.89;60.71;100758.36;1760175;80;21053;-73
2022/02/02 02:20:28;;;;;;;13.65;10.60;;;;;;;5.90;60.77;100758.77;1754352;80;20986;-73
2022/02/02 02:22:54;;;;;;;15.50;10.90;;;;;;;5.90;60.78;100752.74;1764751;80;21085;-74
2022/02/02 02:25:23;;;;;;;17.60;11.15;;;;;;;5.90;60.68;100752.31;1758707;80;20962;-73
2022/02/02 02:27:50;;;;;;;19.60;11.70;;;;;;;5.85;60.89;100757.95;1750574;80;21051;-74
2022/02/02 02:36:06;;;;;;;17.27;14.03;;;;;;;5.92;60.82;100750.59;1705663;83;21018;-75
2022/02/02 02:38:29;;;;;;;17.10;13.55;;;;;;;5.96;60.92;100757.46;1707198;83;21045;-74
2022/02/02 02:56:51;;;;;;;16.80;13.15;;;;;;;6.11;60.34;100748.38;1697189;83;21051;-75
2022/02/02 02:59:31;;;;;;;14.93;12.13;;;;;;;6.14;60.21;100744.48;1702496;83;21554;-75
2022/02/02 03:35:06;;;;;;;6.90;3.42;;;;;;;6.22;59.96;100709.13;1746995;81;20978;-77
2022/02/02 03:51:21;;;;;;;13.70;8.08;;;;;;;6.23;59.99;100694.07;1749389;81;21026;-79
2022/02/02 03:59:06;;;;;;;13.22;5.85;;;;;;;6.21;60.18;100688.05;1754479;80;21021;-77
2022/02/02 04:06:27;;;;;;;9.85;5.45;;;;;;;6.26;60.29;100690.62;1750817;80;21089;-75
2022/02/02 04:08:54;;;;;;;7.55;4.22;;;;;;;6.26;60.24;100691.48;1756520;80;21010;-76
2022/02/02 04:11:41;;;;;;;9.40;4.67;;;;;;;6.25;60.29;100689.75;1755316;81;20983;-76
2022/02/02 04:54:57;;;;;;;4.72;3.98;;;;;;;6.41;60.73;100683.63;1646463;86;21582;-77
2022/02/02 05:00:29;;;;;;;7.62;4.65;;;;;;;6.44;60.65;100675.87;1687937;83;21624;-74
2022/02/02 05:07:36;;;;;;;6.97;4.90;;;;;;;6.47;60.60;100682.29;1697487;83;21042;-75
2022/02/02 05:52:38;;;;;;;7.28;4.20;;;;;;;6.75;60.73;100670.47;1622493;87;21489;-73
2022/02/02 05:55:06;;;;;;;8.48;3.87;;;;;;;6.76;60.78;100669.62;1609405;87;21073;-73
2022/02/02 05:57:33;;;;;;;9.13;4.17;;;;;;;6.78;60.79;100669.17;1689450;83;21058;-75
2022/02/02 06:00:00;;;;;;;10.18;4.35;;;;;;;6.79;60.76;100674.75;1701073;83;21042;-73
2022/02/02 06:02:32;;;;;;;9.18;3.95;;;;;;;6.79;60.87;100673.45;1703390;83;21026;-73
2022/02/02 06:05:04;;;;;;;8.23;4.45;;;;;;;6.80;60.88;100676.48;1745935;80;21034;-73
2022/02/02 06:07:40;;;;;;;7.37;4.55;;;;;;;6.81;60.93;100675.59;1720877;81;21517;-73
2022/02/02 06:10:10;;;;;;;8.23;4.87;;;;;;;6.84;61.03;100680.76;1748949;80;20999;-74
2022/02/02 06:12:36;;;;;;;10.65;5.08;;;;;;;6.85;60.93;100681.16;1753610;80;21495;-74
2022/02/02 06:15:11;;;;;;;9.40;5.55;;;;;;;6.85;61.02;100681.16;1768820;80;21459;-74
2022/02/02 06:17:42;;;;;;;6.30;5.17;;;;;;;6.87;61.01;100685.89;1764536;80;20995;-73
2022/02/02 06:20:10;;;;;;;10.75;5.08;;;;;;;6.90;61.00;100689.77;1766639;80;21506;-73
2022/02/02 06:22:45;;;;;;;9.48;5.50;;;;;;;6.91;60.98;100695.34;1754938;81;21487;-73
2022/02/02 06:25:28;;;;;;;11.90;5.42;;;;;;;6.95;61.09;100694.45;1715027;82;21803;-73
2022/02/02 06:28:02;;;;;;;9.58;4.80;;;;;;;6.99;61.04;100692.25;1702759;83;21015;-74
2022/02/02 06:30:30;;;;;;;11.55;5.28;;;;;;;7.01;61.00;100695.69;1652142;86;21147;-73
2022/02/02 06:33:11;;;;;;;8.48;4.75;;;;;;;7.01;60.89;100693.09;1634371;86;21160;-74
2022/02/02 06:35:38;;;;;;;12.60;5.03;;;;;;;7.02;60.98;100696.99;1629578;86;21031;-73
2022/02/02 06:38:05;;;;;;;9.28;5.42;;;;;;;7.05;61.02;100696.08;1636337;86;21031;-74
2022/02/02 06:40:33;;;;;;;12.30;5.80;;;;;;;7.07;60.96;100690.45;1634786;86;21051;-73
2022/02/02 06:43:00;;;;;;;6.10;4.15;;;;;;;7.09;60.94;100691.34;1635933;86;21037;-73
2022/02/02 06:45:27;;;;;;;7.67;3.58;;;;;;;7.10;60.90;100690.45;1632484;87;21118;-73
2022/02/02 06:47:54;;;;;;;10.63;5.00;;;;;;;7.12;60.83;100685.69;1645709;86;21598;-73
2022/02/02 06:50:28;;;;;;;10.48;5.80;;;;;;;7.14;60.76;100684.37;1643966;86;21591;-73
2022/02/02 06:53:19;;;;;;;12.45;5.37;;;;;;;7.12;60.74;100683.53;1640165;86;21125;-73
2022/02/02 06:55:49;;;;;;;11.55;5.08;;;;;;;7.12;60.81;100687.41;1638347;86;21030;-72
2022/02/02 07:01:27;;;;;;;7.42;3.83;;;;;;;7.13;60.86;100680.09;1572735;90;21541;-73
2022/02/02 07:09:19;;;;;;;4.33;2.70;;;;;;;7.14;60.96;100664.97;1511731;93;21815;-73
2022/02/02 07:11:56;;;;;;;7.50;2.58;;;;;;;7.19;60.92;100668.38;1500191;94;21609;-73
2022/02/02 07:14:21;;;;;;;4.50;2.55;;;;;;;7.23;60.82;100667.48;1495899;94;21102;-73
2022/02/02 07:16:53;;;;;;;6.53;2.58;;;;;;;7.21;60.83;100661.46;1493023;94;21107;-73
2022/02/02 07:21:52;;;;;;;7.28;2.65;;;;;;;7.25;60.93;100654.92;1498669;93;21083;-73
2022/02/02 07:24:37;;;;;;;3.85;2.33;;;;;;;7.26;60.85;100651.91;1492946;93;21253;-73
2022/02/02 07:29:36;;;;;;;5.17;2.22;;;;;;;7.24;60.88;100645.89;1592751;89;20109;-73
2022/02/02 07:32:16;;;;;;;4.53;2.60;;;;;;;7.26;60.94;100636.38;1578043;89;21058;-74
2022/02/02 07:35:14;;;;;;;5.10;2.58;;;;;;;7.29;60.97;100636.36;1576799;89;21160;-73
2022/02/02 07:37:59;;;;;;;6.47;3.55;;;;;;;7.32;60.96;100628.55;1605118;87;21057;-74
2022/02/02 07:40:26;;;;;;;7.37;3.58;;;;;;;7.33;61.00;100630.28;1602005;87;21533;-73
2022/02/02 07:42:53;;;;;;;6.83;3.05;;;;;;;7.39;61.03;100634.09;1602459;88;21587;-74
2022/02/02 07:45:21;;;;;;;8.03;2.83;;;;;;;7.42;60.98;100635.34;1579822;89;21063;-74
2022/02/02 07:47:56;;;;;;;5.22;2.50;;;;;;;7.45;60.88;100634.45;1593389;89;21128;-75
2022/02/02 07:50:24;;;;;;;8.08;3.30;;;;;;;7.47;60.93;100630.12;1536806;91;21118;-74
2022/02/02 07:52:50;;;;;;;7.85;2.60;;;;;;;7.49;60.99;100633.12;1551544;91;21643;-74
2022/02/02 07:55:18;;;;;;;7.65;2.92;;;;;;;7.54;60.98;100633.94;1526602;92;21122;-73
2022/02/02 07:57:45;;;;;;;6.78;2.90;;;;;;;7.61;60.96;100626.93;1536143;91;21615;-73
2022/02/02 08:00:20;;;;;;;8.33;2.75;;;;;;;7.65;60.87;100628.17;1547162;91;21073;-74
2022/02/02 08:05:28;;;;;;;6.75;3.22;;;;;;;7.67;60.75;100632.90;1506205;93;21086;-73
2022/02/02 08:10:38;;;;;;;5.55;3.20;;;;;;;7.71;60.85;100616.87;1498507;94;21082;-73
2022/02/02 08:13:11;;;;;;;7.12;3.42;;;;;;;7.72;60.73;100619.47;1500433;94;21125;-74
2022/02/02 08:15:36;;;;;;;10.25;4.45;;;;;;;7.72;60.73;100616.88;1504278;94;21662;-74
2022/02/02 08:18:02;;;;;;;7.80;4.22;;;;;;;7.71;60.60;100613.86;1491816;95;21553;-75
2022/02/02 08:20:29;;;;;;;8.98;4.15;;;;;;;7.68;60.71;100616.50;1498179;94;21617;-74
2022/02/02 08:22:55;;;;;;;8.10;4.05;;;;;;;7.70;60.42;100628.99;1501724;94;21553;-75
2022/02/02 08:25:30;;;;;;;6.40;3.85;;;;;;;7.72;60.05;100618.17;1505963;94;21105;-74
2022/02/02 08:28:00;;;;;;;8.03;3.67;;;;;;;7.73;59.60;100621.17;1594140;88;21062;-74
2022/02/02 08:30:28;;;;;;;5.00;4.08;;;;;;;7.69;59.32;100626.39;1658028;85;21110;-73
2022/02/02 08:33:00;;;;;;;9.95;4.60;;;;;;;7.63;59.12;100627.34;1660130;85;21094;-74
2022/02/02 08:35:30;;;;;;;7.67;4.35;;;;;;;7.53;59.07;100636.09;1669886;85;21517;-73
2022/02/02 08:40:47;;;;;;;7.60;6.33;;;;;;;7.46;59.04;100635.73;1593489;88;21100;-73
2022/02/02 08:43:15;;;;;;;12.00;8.35;;;;;;;7.42;58.81;100637.92;1639258;87;21043;-74
2022/02/02 08:45:42;;;;;;;14.20;10.72;;;;;;;7.32;58.75;100637.18;1630508;86;21559;-73
2022/02/02 08:48:13;;;;;;;15.60;11.38;;;;;;;7.23;58.91;100643.73;1650342;86;21113;-74
2022/02/02 08:50:55;;;;;;;18.83;12.03;;;;;;;7.17;59.08;100642.95;1681657;83;21029;-74
2022/02/02 08:58:35;;;;;;;21.33;13.35;;;;;;;6.99;59.31;100646.98;1693139;83;21066;-73
2022/02/02 09:01:03;;;;;;;18.90;14.07;;;;;;;6.97;59.53;100646.14;1656809;85;21557;-73
2022/02/02 09:06:15;;;;;;;24.77;15.98;;;;;;;6.95;59.59;100642.71;1651297;85;21037;-73
2022/02/02 09:08:45;;;;;;;20.35;15.00;;;;;;;6.96;59.68;100639.27;1664222;85;21021;-74
2022/02/02 09:35:22;;;;;;;29.65;18.00;;;;;;;7.05;59.90;100602.95;1753959;80;21386;-74
2022/02/02 09:37:48;;;;;;;29.05;17.35;;;;;;;7.09;60.00;100599.48;1757079;80;21547;-74
2022/02/02 09:42:44;;;;;;;30.88;20.65;;;;;;;7.16;59.60;100590.77;1770986;80;21074;-73
2022/02/02 09:45:14;;;;;;;30.80;17.30;;;;;;;7.16;59.47;100586.89;1766955;80;21022;-73
2022/02/02 09:47:46;;;;;;;32.58;19.32;;;;;;;7.17;59.51;100583.45;1746440;80;21081;-73
2022/02/02 09:52:43;;;;;;;33.40;19.40;;;;;;;7.21;59.37;100578.66;1702619;83;21057;-73
2022/02/02 10:00:38;;;;;;;42.88;21.20;;;;;;;7.23;59.20;100575.61;1687521;83;21089;-73
2022/02/02 10:13:15;;;;;;;35.28;21.00;;;;;;;7.26;59.33;100579.45;1599338;87;21055;-74
2022/02/02 10:15:32;;;;;;;37.50;20.05;;;;;;;7.28;59.22;100573.38;1594873;88;21044;-74
2022/02/02 10:18:04;;;;;;;39.70;22.67;;;;;;;7.29;59.14;100569.07;1595572;87;21056;-74
2022/02/02 10:20:32;;;;;;;38.78;23.07;;;;;;;7.24;59.12;100572.14;1604982;89;21108;-74
2022/02/02 10:23:00;;;;;;;37.70;22.52;;;;;;;7.21;59.25;100569.59;1599544;89;21112;-74
2022/02/02 10:25:30;;;;;;;30.97;20.82;;;;;;;7.21;59.37;100561.84;1600676;89;21567;-74
2022/02/02 10:28:18;;;;;;;38.65;24.12;;;;;;;7.22;59.49;100562.23;1602382;89;21141;-73
2022/02/02 10:30:49;;;;;;;36.15;23.38;;;;;;;7.19;59.38;100555.82;1585496;90;21187;-75
2022/02/02 10:33:29;;;;;;;42.03;25.57;;;;;;;7.15;59.61;100551.09;1496789;95;21081;-73
2022/02/02 10:36:07;;;;;;;40.35;24.47;;;;;;;7.17;59.66;100553.69;1501375;95;21076;-74
2022/02/02 10:43:40;;;;;;;39.60;26.17;;;;;;;7.19;59.71;100545.01;1464281;97;21152;-74
2022/02/02 10:46:51;;;;;;;33.98;23.05;;;;;;;7.23;59.79;100549.73;1460479;97;21075;-73
2022/02/02 10:49:19;;;;;;;40.63;25.95;;;;;;;7.23;59.43;100556.20;1479849;95;21093;-75
2022/02/02 10:51:52;;;;;;;45.65;27.17;;;;;;;7.18;59.68;100551.08;1491228;95;21136;-75
2022/02/02 10:54:24;;;;;;;44.27;25.70;;;;;;;7.22;59.61;100553.18;1490882;95;21093;-74
2022/02/02 10:56:55;;;;;;;36.20;22.60;;;;;;;7.22;59.60;100559.65;1498698;95;21600;-74
2022/02/02 10:59:27;;;;;;;34.55;22.80;;;;;;;7.20;59.52;100551.05;1493452;95;21561;-75
2022/02/02 11:07:09;;;;;;;41.98;25.57;;;;;;;7.11;59.55;100550.70;1545759;91;21091;-74
2022/02/02 11:09:36;;;;;;;33.58;22.73;;;;;;;7.06;59.78;100545.17;1554955;91;21086;-74
2022/02/02 11:12:03;;;;;;;35.03;22.80;;;;;;;7.04;59.81;100550.80;1535766;91;21122;-74
2022/02/02 11:14:42;;;;;;;37.58;22.58;;;;;;;7.02;59.97;100545.66;1559268;91;21201;-74
2022/02/02 11:17:31;;;;;;;32.95;21.00;;;;;;;7.02;60.20;100543.49;1542150;92;21146;-74
2022/02/02 11:20:01;;;;;;;37.35;20.88;;;;;;;7.05;60.15;100544.73;1547424;92;21055;-74
2022/02/02 11:22:31;;;;;;;33.75;21.48;;;;;;;7.05;60.21;100527.92;1543180;92;21134;-74
2022/02/02 11:25:12;;;;;;;33.05;21.00;;;;;;;7.08;60.34;100529.20;1532031;92;21610;-75
2022/02/02 11:27:47;;;;;;;34.83;20.77;;;;;;;7.10;60.31;100529.61;1535043;93;21137;-74
2022/02/02 11:30:32;;;;;;;36.55;20.40;;;;;;;7.12;60.39;100528.28;1552781;90;21037;-74
2022/02/02 11:33:01;;;;;;;35.50;21.37;;;;;;;7.16;60.41;100529.96;1562113;90;21152;-75
2022/02/02 11:35:54;;;;;;;36.58;21.90;;;;;;;7.21;60.27;100534.66;1562234;91;21027;-75
2022/02/02 11:38:33;;;;;;;33.13;21.50;;;;;;;7.19;60.13;100535.12;1582694;87;21062;-74
2022/02/02 11:41:24;;;;;;;34.27;20.40;;;;;;;7.23;60.23;100544.56;1615384;87;21583;-75
2022/02/02 11:43:56;;;;;;;37.63;21.87;;;;;;;7.24;60.01;100538.06;1600478;88;21078;-73
2022/02/02 11:49:24;;;;;;;32.60;18.82;;;;;;;7.18;59.99;100537.27;1547202;92;21134;-73
2022/02/02 11:51:58;;;;;;;38.70;20.60;;;;;;;7.15;60.08;100530.39;1532298;92;21090;-74
2022/02/02 11:54:42;;;;;;;34.88;20.85;;;;;;;7.15;60.21;100532.15;1516233;93;21131;-74
2022/02/02 11:57:16;;;;;;;38.05;20.82;;;;;;;7.12;60.19;100529.58;1517383;93;21090;-74
2022/02/02 11:59:54;;;;;;;42.60;21.50;;;;;;;7.07;60.16;100530.92;1517652;92;21107;-74
2022/02/02 12:02:22;;;;;;;40.52;21.17;;;;;;;7.05;60.49;100539.56;1495706;94;21149;-75
2022/02/02 12:08:24;;;;;;;37.80;22.00;;;;;;;7.10;60.32;100528.74;1497826;95;21258;-74
2022/02/02 12:58:17;;;;;;;27.50;17.60;;;;;;;7.09;60.82;100564.56;1374426;103;21787;-73
2022/02/02 13:03:10;;;;;;;28.45;18.37;;;;;;;7.17;60.59;100569.21;1398655;98;21623;-73
2022/02/02 13:05:40;;;;;;;27.60;19.30;;;;;;;7.18;60.59;100576.09;1435093;99;21618;-73
2022/02/02 13:08:08;;;;;;;31.07;18.17;;;;;;;7.20;60.48;100578.22;1474327;96;21083;-73
2022/02/02 13:10:37;;;;;;;28.80;17.40;;;;;;;7.25;60.37;100575.16;1476038;96;21096;-73
2022/02/02 13:13:12;;;;;;;27.62;17.02;;;;;;;7.27;60.17;100573.41;1482043;96;21137;-74
2022/02/02 13:15:45;;;;;;;27.07;18.02;;;;;;;7.26;60.15;100574.27;1496369;92;21079;-74
2022/02/02 13:23:51;;;;;;;29.72;18.10;;;;;;;7.37;60.05;100572.42;1619090;87;20985;-73
2022/02/02 13:26:19;;;;;;;27.55;18.17;;;;;;;7.40;59.74;100569.78;1616145;87;21058;-75
2022/02/02 13:28:57;;;;;;;28.83;17.83;;;;;;;7.46;59.70;100567.13;1591001;89;21084;-73
2022/02/02 13:31:47;;;;;;;25.60;17.15;;;;;;;7.50;59.40;100565.38;1583494;89;21171;-73
2022/02/02 13:34:17;;;;;;;26.17;18.57;;;;;;;7.52;59.23;100567.51;1586585;89;21091;-73
2022/02/02 13:39:23;;;;;;;24.98;17.42;;;;;;;7.55;58.99;100579.97;1597129;89;21563;-74
2022/02/02 13:47:57;;;;;;;27.07;18.77;;;;;;;7.62;58.68;100589.39;1566565;90;21110;-73
2022/02/02 13:59:18;;;;;;;16.90;12.65;;;;;;;7.43;58.36;100590.47;1556661;91;21075;-74
2022/02/02 14:01:46;;;;;;;14.63;10.75;;;;;;;7.40;58.49;100592.66;1547479;92;21543;-74
2022/02/02 14:31:11;;;;;;;12.37;9.50;;;;;;;7.91;57.66;100592.43;1662618;84;21593;-73
2022/02/02 14:33:39;;;;;;;12.13;9.13;;;;;;;7.94;57.50;100597.59;1670586;84;21095;-74
2022/02/02 14:36:08;;;;;;;14.20;10.00;;;;;;;7.96;57.42;100597.13;1656867;84;21100;-74
2022/02/02 14:38:45;;;;;;;13.95;9.75;;;;;;;8.00;57.25;100602.69;1669774;84;21605;-73
2022/02/02 14:41:29;;;;;;;12.80;10.40;;;;;;;8.01;57.22;100601.83;1682760;84;21077;-73
2022/02/02 14:43:56;;;;;;;13.28;9.60;;;;;;;8.02;57.12;100597.05;1698589;84;21037;-73
2022/02/02 14:46:16;;;;;;;12.30;8.50;;;;;;;8.04;57.09;100601.77;1687872;84;21037;-73
2022/02/02 14:53:49;;;;;;;14.43;11.15;;;;;;;8.08;56.90;100608.61;1631807;86;21608;-73
2022/02/02 15:28:44;;;;;;;7.90;6.62;;;;;;;8.07;56.16;100608.64;1664444;84;21042;-73
2022/02/02 15:31:04;;;;;;;9.65;7.50;;;;;;;8.06;56.23;100610.37;1678089;84;21036;-73
2022/02/02 15:33:32;;;;;;;8.03;6.55;;;;;;;8.06;56.22;100607.78;1678984;85;21094;-73
2022/02/02 15:38:31;;;;;;;10.05;7.70;;;;;;;8.05;56.16;100617.75;1674756;85;21023;-73
2022/02/02 15:41:03;;;;;;;10.28;9.08;;;;;;;8.05;56.17;100618.17;1679339;85;21062;-73
2022/02/02 15:43:41;;;;;;;9.25;8.03;;;;;;;8.04;56.25;100619.91;1640807;86;21098;-73
2022/02/02 16:02:10;;;;;;;43.05;27.15;;;;;;;8.00;56.15;100657.09;1707132;83;21590;-74
2022/02/02 16:04:37;;;;;;;68.33;42.13;;;;;;;8.00;56.17;100658.82;1701519;83;21068;-74
2022/02/02 16:07:06;;;;;;;68.00;42.23;;;;;;;7.98;56.23;100664.03;1711609;83;21076;-74
2022/02/02 16:09:45;;;;;;;50.75;31.35;;;;;;;7.97;56.21;100662.34;1707045;83;21089;-74
2022/02/02 16:14:45;;;;;;;29.12;19.65;;;;;;;7.98;56.27;100658.85;1663146;86;21066;-75
2022/02/02 16:24:43;;;;;;;29.10;19.92;;;;;;;7.96;56.08;100664.48;1656833;86;21491;-74
2022/02/02 16:25:03;;;;;;;42.25;29.00;;;;;;;7.94;56.03;100671.42;1639787;86;21079;-73
2022/02/02 16:38:16;;;;;;;28.40;22.52;;;;;;;7.90;56.29;100663.27;1661645;84;21071;-73
2022/02/02 16:40:44;;;;;;;25.62;20.88;;;;;;;7.90;56.23;100672.34;1660414;84;21040;-74
2022/02/02 16:43:13;;;;;;;27.73;21.77;;;;;;;7.91;56.27;100686.16;1657012;84;21153;-73
2022/02/02 16:45:46;;;;;;;25.40;19.57;;;;;;;7.90;56.27;100674.94;1643686;84;21521;-74
2022/02/02 16:48:12;;;;;;;37.48;24.18;;;;;;;7.89;56.32;100682.27;1656540;85;21128;-74
2022/02/02 16:50:43;;;;;;;42.90;28.20;;;;;;;7.89;56.38;100684.86;1652928;84;21086;-74
2022/02/02 16:55:54;;;;;;;75.30;41.18;;;;;;;7.89;56.34;100695.22;1672471;84;21047;-73
2022/02/02 17:30:51;;;;;;;10.48;8.20;;;;;;;7.65;55.72;100691.63;1687287;83;21038;-74
2022/02/02 17:33:17;;;;;;;41.80;21.35;;;;;;;7.63;55.77;100689.48;1700351;83;21106;-73
2022/02/02 17:36:03;;;;;;;23.70;14.50;;;;;;;7.61;55.72;100683.47;1700218;83;21054;-73
2022/02/02 17:38:28;;;;;;;15.48;11.53;;;;;;;7.59;55.72;100682.62;1694830;83;21074;-74
2022/02/02 17:40:58;;;;;;;18.25;11.93;;;;;;;7.58;55.66;100683.52;1694348;83;21081;-74
2022/02/02 18:20:50;;;;;;;67.05;36.85;;;;;;;7.36;56.12;100698.83;1638352;86;21513;-74
2022/02/02 18:28:29;;;;;;;22.77;17.07;;;;;;;7.32;56.06;100716.55;1554811;91;21026;-74
2022/02/02 18:36:02;;;;;;;37.05;27.02;;;;;;;7.28;56.02;100713.57;1546041;92;21090;-74
2022/02/02 18:39:33;;;;;;;23.87;19.20;;;;;;;7.27;55.88;100713.16;1571170;90;21154;-74
2022/02/02 18:48:36;;;;;;;46.92;34.15;;;;;;;7.19;56.00;100722.73;1592774;89;21148;-74
2022/02/02 18:58:43;;;;;;;19.00;15.03;;;;;;;7.16;56.33;100731.36;1519036;92;21114;-74
2022/02/02 19:06:50;;;;;;;18.00;13.10;;;;;;;7.16;56.24;100739.13;1528967;92;21202;-74
2022/02/02 19:53:38;;;;;;;22.85;15.65;;;;;;;7.14;56.86;100738.28;1616810;86;21074;-74
2022/02/02 20:09:21;;;;;;;22.75;18.45;;;;;;;7.21;56.82;100744.27;1648295;86;21003;-74
2022/02/02 20:11:29;;;;;;;21.75;16.93;;;;;;;7.22;56.76;100749.86;1628462;86;21656;-75
2022/02/02 20:13:56;;;;;;;18.32;13.90;;;;;;;7.21;56.67;100749.45;1632330;86;21034;-74
2022/02/02 20:16:22;;;;;;;16.70;11.95;;;;;;;7.21;56.65;100743.81;1693863;80;21006;-74
2022/02/02 20:18:54;;;;;;;13.80;10.68;;;;;;;7.21;56.63;100745.11;1754643;80;21014;-74
2022/02/02 20:21:22;;;;;;;12.73;10.15;;;;;;;7.21;56.60;100745.56;1748250;80;21089;-74
2022/02/02 20:23:49;;;;;;;12.35;10.10;;;;;;;7.22;56.57;100752.44;1743155;80;21002;-75
2022/02/02 20:26:18;;;;;;;12.50;9.55;;;;;;;7.23;56.70;100747.70;1763523;80;21007;-73
2022/02/02 20:28:45;;;;;;;12.10;9.65;;;;;;;7.23;56.67;100753.72;1756420;80;21077;-73
2022/02/02 20:31:12;;;;;;;15.35;10.75;;;;;;;7.24;56.66;100753.29;1756693;80;21050;-74
2022/02/02 20:33:39;;;;;;;14.45;11.97;;;;;;;7.24;56.65;100754.58;1762220;80;21061;-74
2022/02/02 20:36:05;;;;;;;15.15;11.18;;;;;;;7.24;56.67;100750.27;1764121;80;21027;-74
2022/02/02 20:38:32;;;;;;;12.65;10.15;;;;;;;7.25;56.70;100747.26;1764899;80;21007;-74
2022/02/02 20:40:59;;;;;;;11.95;10.55;;;;;;;7.25;56.70;100745.97;1778270;80;20994;-74
2022/02/02 20:43:34;;;;;;;21.17;15.05;;;;;;;7.25;56.71;100745.97;1760865;80;20984;-75
2022/02/02 21:10:32;;;;;;;17.40;11.60;;;;;;;6.89;56.94;100747.52;1770689;80;21110;-73
2022/02/02 21:15:43;;;;;;;38.45;21.10;;;;;;;6.94;57.00;100766.04;1754995;80;21049;-75
2022/02/02 21:18:17;;;;;;;22.52;15.13;;;;;;;6.96;57.05;100759.55;1772067;80;21033;-74
2022/02/02 21:28:38;;;;;;;25.27;19.27;;;;;;;6.84;56.91;100748.84;1702486;83;21018;-74
2022/02/02 21:31:06;;;;;;;28.38;19.45;;;;;;;6.87;56.96;100758.31;1716603;83;21205;-73
2022/02/02 21:33:38;;;;;;;23.30;17.30;;;;;;;6.88;56.98;100762.63;1699365;83;21108;-74
2022/02/02 21:36:09;;;;;;;23.83;17.80;;;;;;;6.90;56.97;100755.72;1715240;83;21573;-74
2022/02/02 21:38:52;;;;;;;21.60;15.88;;;;;;;6.91;56.92;100750.95;1699647;83;21011;-74
2022/02/02 21:41:02;;;;;;;22.37;16.93;;;;;;;6.93;56.91;100764.73;1700667;83;21557;-74
2022/02/02 21:43:30;;;;;;;23.45;17.00;;;;;;;6.94;56.95;100760.00;1711306;83;21494;-73
2022/02/02 21:45:57;;;;;;;23.87;16.20;;;;;;;6.96;56.90;100763.44;1708893;83;21022;-73
2022/02/02 21:48:29;;;;;;;20.92;15.45;;;;;;;6.96;56.94;100768.61;1705111;83;21018;-75
2022/02/02 21:51:00;;;;;;;23.20;15.68;;;;;;;6.96;56.90;100766.02;1699942;83;21061;-74
2022/02/02 21:53:22;;;;;;;24.15;16.77;;;;;;;6.98;56.95;100764.28;1699041;83;21570;-74
2022/02/02 21:55:49;;;;;;;24.85;16.70;;;;;;;6.98;57.09;100775.92;1711737;83;21726;-74
2022/02/02 21:58:15;;;;;;;29.30;17.98;;;;;;;7.00;57.10;100778.06;1708020;83;21719;-73
2022/02/02 22:00:42;;;;;;;26.27;17.27;;;;;;;7.01;57.12;100779.77;1702183;83;21511;-74
2022/02/02 22:03:09;;;;;;;27.22;17.20;;;;;;;7.00;57.03;100778.93;1708821;83;21565;-73
2022/02/02 22:05:36;;;;;;;23.60;16.82;;;;;;;6.99;56.91;100771.16;1703061;83;21573;-74
2022/02/02 22:08:07;;;;;;;25.10;16.20;;;;;;;6.99;57.02;100776.33;1705504;83;21030;-74
2022/02/02 22:10:32;;;;;;;28.12;16.57;;;;;;;7.00;57.10;100779.36;1700242;83;21592;-74
2022/02/02 22:12:58;;;;;;;28.90;17.90;;;;;;;7.00;57.16;100780.66;1712062;83;21505;-76
2022/02/02 22:15:29;;;;;;;28.55;17.67;;;;;;;7.00;57.26;100784.53;1700772;83;21022;-75
2022/02/02 22:17:53;;;;;;;27.40;16.52;;;;;;;7.02;57.35;100785.38;1696890;80;21034;-75
2022/02/02 22:20:20;;;;;;;21.60;16.02;;;;;;;7.01;57.15;100783.64;1765269;80;21045;-74
2022/02/02 22:22:47;;;;;;;23.95;16.32;;;;;;;6.98;57.04;100783.26;1747467;80;21010;-74
2022/02/02 22:25:18;;;;;;;19.42;14.00;;;;;;;6.91;56.99;100776.39;1737590;80;21036;-74
2022/02/02 22:27:44;;;;;;;21.77;15.43;;;;;;;6.89;57.00;100783.73;1742343;80;21526;-74
2022/02/02 22:30:11;;;;;;;21.97;15.30;;;;;;;6.90;57.07;100786.33;1748470;80;21506;-74
2022/02/02 22:32:37;;;;;;;22.80;15.65;;;;;;;6.91;57.13;100797.52;1758256;80;21030;-74
2022/02/02 22:35:04;;;;;;;21.57;14.78;;;;;;;6.87;57.16;100803.14;1767100;80;21046;-74
2022/02/02 22:37:31;;;;;;;21.25;15.53;;;;;;;6.85;57.11;100791.09;1774139;80;21003;-74
2022/02/02 22:39:57;;;;;;;28.10;17.70;;;;;;;6.86;57.21;100795.41;1754702;80;21042;-74
2022/02/02 22:42:26;;;;;;;30.15;18.37;;;;;;;6.88;57.22;100797.13;1766034;80;21010;-74